sensor_id;sensor_type;location;lat;lon;timestamp;pressure;altitude;pressure_sealevel;temperature;humidity
49341;BME280;35209;51.050;13.678;2023-05-15T00:01:12;99546.63;;;13.00;87.09
49341;BME280;35209;51.050;13.678;2023-05-15T00:06:14;99543.75;;;12.87;86.81
49341;BME280;35209;51.050;13.678;2023-05-15T00:11:16;99541.28;;;12.65;88.03
49341;BME280;35209;51.050;13.678;2023-05-15T00:16:18;99532.63;;;12.25;91.35
49341;BME280;35209;51.050;13.678;2023-05-15T00:21:19;99525.50;;;12.08;92.80
49341;BME280;35209;51.050;13.678;2023-05-15T00:26:22;99528.72;;;12.15;92.45
49341;BME280;35209;51.050;13.678;2023-05-15T00:31:23;99521.19;;;12.26;90.67
49341;BME280;35209;51.050;13.678;2023-05-15T00:36:25;99524.72;;;11.88;93.46
49341;BME280;35209;51.050;13.678;2023-05-15T00:41:27;99515.25;;;12.21;90.26
49341;BME280;35209;51.050;13.678;2023-05-15T00:46:33;99504.94;;;11.98;90.50
49341;BME280;35209;51.050;13.678;2023-05-15T00:51:36;99502.09;;;11.63;92.09
49341;BME280;35209;51.050;13.678;2023-05-15T00:56:38;99492.50;;;11.62;91.45
49341;BME280;35209;51.050;13.678;2023-05-15T01:01:40;99495.88;;;11.64;90.50
49341;BME280;35209;51.050;13.678;2023-05-15T01:06:45;99488.50;;;11.33;93.26
49341;BME280;35209;51.050;13.678;2023-05-15T01:11:50;99495.41;;;11.15;95.11
49341;BME280;35209;51.050;13.678;2023-05-15T01:16:53;99492.31;;;11.26;92.73
49341;BME280;35209;51.050;13.678;2023-05-15T01:37:43;99483.38;;;11.09;94.57
49341;BME280;35209;51.050;13.678;2023-05-15T01:42:53;99475.81;;;11.02;96.40
49341;BME280;35209;51.050;13.678;2023-05-15T01:47:57;99478.84;;;11.13;96.55
49341;BME280;35209;51.050;13.678;2023-05-15T01:53:01;99463.34;;;11.46;93.98
49341;BME280;35209;51.050;13.678;2023-05-15T01:58:04;99458.19;;;11.63;91.70
49341;BME280;35209;51.050;13.678;2023-05-15T02:03:05;99459.63;;;11.71;90.86
49341;BME280;35209;51.050;13.678;2023-05-15T02:08:08;99444.56;;;11.74;90.75
49341;BME280;35209;51.050;13.678;2023-05-15T02:13:11;99452.91;;;11.45;95.19
49341;BME280;35209;51.050;13.678;2023-05-15T02:18:13;99454.38;;;11.50;95.49
49341;BME280;35209;51.050;13.678;2023-05-15T02:23:14;99452.78;;;11.67;94.10
49341;BME280;35209;51.050;13.678;2023-05-15T02:28:22;99444.47;;;11.76;93.36
49341;BME280;35209;51.050;13.678;2023-05-15T02:33:36;99442.44;;;11.82;93.29
49341;BME280;35209;51.050;13.678;2023-05-15T02:38:45;99436.16;;;12.04;91.09
49341;BME280;35209;51.050;13.678;2023-05-15T02:43:49;99433.59;;;12.02;91.13
49341;BME280;35209;51.050;13.678;2023-05-15T02:48:53;99424.56;;;11.70;93.91
49341;BME280;35209;51.050;13.678;2023-05-15T02:53:55;99416.16;;;11.62;95.43
49341;BME280;35209;51.050;13.678;2023-05-15T02:58:56;99417.84;;;11.63;95.38
49341;BME280;35209;51.050;13.678;2023-05-15T03:03:58;99409.69;;;11.69;95.09
49341;BME280;35209;51.050;13.678;2023-05-15T03:09:00;99400.56;;;11.57;95.86
49341;BME280;35209;51.050;13.678;2023-05-15T03:14:01;99410.09;;;11.60;95.91
49341;BME280;35209;51.050;13.678;2023-05-15T03:19:04;99398.91;;;11.55;95.85
49341;BME280;35209;51.050;13.678;2023-05-15T03:24:06;99398.22;;;11.70;94.25
49341;BME280;35209;51.050;13.678;2023-05-15T03:29:07;99391.50;;;11.83;93.75
49341;BME280;35209;51.050;13.678;2023-05-15T03:34:09;99387.56;;;11.73;95.42
49341;BME280;35209;51.050;13.678;2023-05-15T03:39:11;99393.88;;;11.69;96.20
49341;BME280;35209;51.050;13.678;2023-05-15T03:44:13;99390.41;;;11.88;95.27
49341;BME280;35209;51.050;13.678;2023-05-15T03:49:14;99395.16;;;11.98;95.08
49341;BME280;35209;51.050;13.678;2023-05-15T03:54:16;99391.38;;;12.23;92.82
49341;BME280;35209;51.050;13.678;2023-05-15T03:59:18;99384.13;;;12.09;93.86
49341;BME280;35209;51.050;13.678;2023-05-15T04:04:19;99388.00;;;11.83;96.30
49341;BME280;35209;51.050;13.678;2023-05-15T04:09:21;99384.94;;;11.92;96.67
49341;BME280;35209;51.050;13.678;2023-05-15T04:14:22;99384.34;;;12.04;96.10
49341;BME280;35209;51.050;13.678;2023-05-15T04:19:24;99385.06;;;11.89;97.97
49341;BME280;35209;51.050;13.678;2023-05-15T04:24:26;99378.38;;;12.01;96.92
49341;BME280;35209;51.050;13.678;2023-05-15T04:29:27;99374.59;;;12.06;96.20
49341;BME280;35209;51.050;13.678;2023-05-15T04:34:29;99368.00;;;12.15;94.47
49341;BME280;35209;51.050;13.678;2023-05-15T04:39:30;99374.84;;;11.81;98.66
49341;BME280;35209;51.050;13.678;2023-05-15T04:44:32;99360.38;;;11.92;97.82
49341;BME280;35209;51.050;13.678;2023-05-15T04:49:34;99363.38;;;12.37;93.65
49341;BME280;35209;51.050;13.678;2023-05-15T04:54:36;99367.75;;;12.02;97.45
49341;BME280;35209;51.050;13.678;2023-05-15T04:59:37;99359.63;;;12.07;98.43
49341;BME280;35209;51.050;13.678;2023-05-15T05:04:42;99356.19;;;12.24;98.16
49341;BME280;35209;51.050;13.678;2023-05-15T05:09:46;99352.84;;;12.37;96.90
49341;BME280;35209;51.050;13.678;2023-05-15T05:14:47;99355.03;;;12.47;95.70
49341;BME280;35209;51.050;13.678;2023-05-15T05:19:49;99341.47;;;12.72;94.07
49341;BME280;35209;51.050;13.678;2023-05-15T05:24:51;99338.31;;;12.98;91.38
49341;BME280;35209;51.050;13.678;2023-05-15T05:29:53;99327.53;;;13.19;88.14
49341;BME280;35209;51.050;13.678;2023-05-15T05:34:54;99321.03;;;13.26;84.33
49341;BME280;35209;51.050;13.678;2023-05-15T05:39:56;99310.63;;;13.23;85.04
49341;BME280;35209;51.050;13.678;2023-05-15T05:44:58;99307.16;;;13.22;83.92
49341;BME280;35209;51.050;13.678;2023-05-15T05:49:59;99314.84;;;13.43;82.49
49341;BME280;35209;51.050;13.678;2023-05-15T05:55:01;99310.66;;;13.38;83.84
49341;BME280;35209;51.050;13.678;2023-05-15T06:00:04;99310.41;;;13.43;86.30
49341;BME280;35209;51.050;13.678;2023-05-15T06:05:11;99299.59;;;13.63;84.83
49341;BME280;35209;51.050;13.678;2023-05-15T06:10:14;99301.09;;;13.99;80.83
49341;BME280;35209;51.050;13.678;2023-05-15T06:15:16;99292.50;;;13.80;82.10
49341;BME280;35209;51.050;13.678;2023-05-15T06:20:17;99292.28;;;13.69;82.67
49341;BME280;35209;51.050;13.678;2023-05-15T06:25:19;99298.34;;;14.01;80.23
49341;BME280;35209;51.050;13.678;2023-05-15T06:30:21;99288.53;;;14.03;82.80
49341;BME280;35209;51.050;13.678;2023-05-15T06:35:23;99286.41;;;14.09;80.92
49341;BME280;35209;51.050;13.678;2023-05-15T06:40:25;99283.81;;;14.24;79.57
49341;BME280;35209;51.050;13.678;2023-05-15T06:45:27;99280.41;;;14.52;77.41
49341;BME280;35209;51.050;13.678;2023-05-15T06:50:29;99273.34;;;14.81;73.65
49341;BME280;35209;51.050;13.678;2023-05-15T06:55:31;99273.53;;;14.78;74.00
49341;BME280;35209;51.050;13.678;2023-05-15T07:00:34;99255.84;;;14.78;74.46
49341;BME280;35209;51.050;13.678;2023-05-15T07:05:36;99257.66;;;14.49;78.37
49341;BME280;35209;51.050;13.678;2023-05-15T07:10:37;99250.78;;;14.89;74.75
49341;BME280;35209;51.050;13.678;2023-05-15T07:15:39;99244.06;;;14.98;74.79
49341;BME280;35209;51.050;13.678;2023-05-15T07:20:41;99239.56;;;15.42;71.66
49341;BME280;35209;51.050;13.678;2023-05-15T07:25:42;99244.03;;;15.12;72.58
49341;BME280;35209;51.050;13.678;2023-05-15T07:30:46;99235.59;;;15.34;70.55
49341;BME280;35209;51.050;13.678;2023-05-15T07:35:49;99241.75;;;15.21;72.89
49341;BME280;35209;51.050;13.678;2023-05-15T07:40:51;99247.09;;;15.06;72.37
49341;BME280;35209;51.050;13.678;2023-05-15T07:45:52;99247.16;;;14.91;72.60
49341;BME280;35209;51.050;13.678;2023-05-15T07:50:54;99237.03;;;15.53;70.14
49341;BME280;35209;51.050;13.678;2023-05-15T07:55:58;99234.28;;;15.69;68.80
49341;BME280;35209;51.050;13.678;2023-05-15T08:00:59;99234.53;;;15.78;69.86
49341;BME280;35209;51.050;13.678;2023-05-15T08:06:01;99231.16;;;15.62;70.73
49341;BME280;35209;51.050;13.678;2023-05-15T08:11:03;99228.78;;;15.57;71.49
49341;BME280;35209;51.050;13.678;2023-05-15T08:16:05;99223.72;;;15.54;70.41
49341;BME280;35209;51.050;13.678;2023-05-15T08:21:06;99221.59;;;15.32;72.52
49341;BME280;35209;51.050;13.678;2023-05-15T08:26:08;99235.72;;;15.60;72.23
49341;BME280;35209;51.050;13.678;2023-05-15T08:31:10;99226.88;;;15.74;72.64
49341;BME280;35209;51.050;13.678;2023-05-15T08:36:12;99228.94;;;15.83;72.16
49341;BME280;35209;51.050;13.678;2023-05-15T08:41:27;99223.09;;;15.78;71.51
49341;BME280;35209;51.050;13.678;2023-05-15T08:46:42;99225.09;;;15.60;72.79
49341;BME280;35209;51.050;13.678;2023-05-15T08:51:43;99220.47;;;15.63;73.63
49341;BME280;35209;51.050;13.678;2023-05-15T08:56:46;99220.50;;;15.49;72.73
49341;BME280;35209;51.050;13.678;2023-05-15T09:01:48;99226.16;;;15.72;69.42
49341;BME280;35209;51.050;13.678;2023-05-15T09:06:50;99221.63;;;15.86;69.10
49341;BME280;35209;51.050;13.678;2023-05-15T09:11:53;99219.66;;;15.76;71.30
49341;BME280;35209;51.050;13.678;2023-05-15T09:16:55;99213.81;;;15.71;70.60
49341;BME280;35209;51.050;13.678;2023-05-15T09:22:13;99211.09;;;16.12;68.94
49341;BME280;35209;51.050;13.678;2023-05-15T09:27:17;99218.28;;;16.10;68.12
49341;BME280;35209;51.050;13.678;2023-05-15T09:32:19;99207.59;;;16.37;68.50
49341;BME280;35209;51.050;13.678;2023-05-15T09:37:31;99203.13;;;16.37;68.71
49341;BME280;35209;51.050;13.678;2023-05-15T09:42:33;99199.84;;;16.47;68.99
49341;BME280;35209;51.050;13.678;2023-05-15T09:47:35;99201.03;;;16.81;67.16
49341;BME280;35209;51.050;13.678;2023-05-15T09:52:38;99191.03;;;16.97;66.92
49341;BME280;35209;51.050;13.678;2023-05-15T09:57:39;99200.50;;;17.25;64.08
49341;BME280;35209;51.050;13.678;2023-05-15T10:02:41;99193.88;;;17.07;63.92
49341;BME280;35209;51.050;13.678;2023-05-15T10:07:43;99193.00;;;17.06;63.62
49341;BME280;35209;51.050;13.678;2023-05-15T10:12:45;99199.16;;;17.44;63.81
49341;BME280;35209;51.050;13.678;2023-05-15T10:17:50;99198.72;;;17.74;62.45
49341;BME280;35209;51.050;13.678;2023-05-15T10:22:54;99186.28;;;17.50;60.45
49341;BME280;35209;51.050;13.678;2023-05-15T10:27:56;99190.28;;;17.32;60.63
49341;BME280;35209;51.050;13.678;2023-05-15T10:32:59;99187.06;;;17.87;57.84
49341;BME280;35209;51.050;13.678;2023-05-15T10:38:03;99182.94;;;17.83;56.62
49341;BME280;35209;51.050;13.678;2023-05-15T10:43:08;99179.00;;;18.00;55.55
49341;BME280;35209;51.050;13.678;2023-05-15T10:48:11;99179.09;;;18.34;54.99
49341;BME280;35209;51.050;13.678;2023-05-15T10:53:14;99164.56;;;19.28;52.74
49341;BME280;35209;51.050;13.678;2023-05-15T10:58:17;99157.94;;;20.07;48.72
49341;BME280;35209;51.050;13.678;2023-05-15T11:03:36;99152.75;;;20.06;48.26
49341;BME280;35209;51.050;13.678;2023-05-15T11:08:49;99135.41;;;20.63;47.58
49341;BME280;35209;51.050;13.678;2023-05-15T11:30:06;99118.13;;;19.74;47.41
49341;BME280;35209;51.050;13.678;2023-05-15T11:35:09;99126.56;;;19.03;51.26
49341;BME280;35209;51.050;13.678;2023-05-15T11:40:23;99124.16;;;18.10;56.03
49341;BME280;35209;51.050;13.678;2023-05-15T11:45:37;99129.84;;;17.47;63.01
49341;BME280;35209;51.050;13.678;2023-05-15T11:50:41;99123.00;;;16.71;65.59
49341;BME280;35209;51.050;13.678;2023-05-15T11:55:43;99125.84;;;16.68;70.74
49341;BME280;35209;51.050;13.678;2023-05-15T12:00:46;99133.00;;;16.54;71.74
49341;BME280;35209;51.050;13.678;2023-05-15T12:05:48;99128.00;;;16.50;73.53
49341;BME280;35209;51.050;13.678;2023-05-15T12:11:00;99126.31;;;16.49;72.16
49341;BME280;35209;51.050;13.678;2023-05-15T12:16:03;99113.69;;;16.52;73.17
49341;BME280;35209;51.050;13.678;2023-05-15T12:21:05;99108.22;;;17.16;69.54
49341;BME280;35209;51.050;13.678;2023-05-15T12:26:07;99105.50;;;17.88;66.80
49341;BME280;35209;51.050;13.678;2023-05-15T12:31:09;99097.47;;;18.79;59.75
49341;BME280;35209;51.050;13.678;2023-05-15T12:36:12;99098.78;;;18.85;59.47
49341;BME280;35209;51.050;13.678;2023-05-15T12:41:13;99091.22;;;19.12;57.00
49341;BME280;35209;51.050;13.678;2023-05-15T12:46:15;99095.22;;;19.92;55.21
49341;BME280;35209;51.050;13.678;2023-05-15T12:51:22;99096.38;;;20.20;51.95
49341;BME280;35209;51.050;13.678;2023-05-15T12:56:24;99092.47;;;20.24;51.41
49341;BME280;35209;51.050;13.678;2023-05-15T13:01:27;99086.72;;;20.29;52.02
49341;BME280;35209;51.050;13.678;2023-05-15T13:06:29;99072.56;;;20.59;53.80
49341;BME280;35209;51.050;13.678;2023-05-15T13:11:46;99059.63;;;20.54;44.77
49341;BME280;35209;51.050;13.678;2023-05-15T13:16:48;99070.50;;;20.72;45.07
49341;BME280;35209;51.050;13.678;2023-05-15T13:21:49;99065.34;;;21.00;43.73
49341;BME280;35209;51.050;13.678;2023-05-15T13:26:51;99065.44;;;20.98;43.83
49341;BME280;35209;51.050;13.678;2023-05-15T13:31:53;99040.06;;;20.54;43.87
49341;BME280;35209;51.050;13.678;2023-05-15T13:36:55;99054.09;;;21.06;47.06
49341;BME280;35209;51.050;13.678;2023-05-15T13:41:56;99042.88;;;20.52;49.56
49341;BME280;35209;51.050;13.678;2023-05-15T13:46:58;99047.22;;;21.03;48.96
49341;BME280;35209;51.050;13.678;2023-05-15T13:52:04;99040.75;;;21.45;45.83
49341;BME280;35209;51.050;13.678;2023-05-15T13:57:06;99036.63;;;20.73;48.31
49341;BME280;35209;51.050;13.678;2023-05-15T14:02:08;99038.94;;;20.56;47.94
49341;BME280;35209;51.050;13.678;2023-05-15T14:07:09;99046.75;;;20.08;49.49
49341;BME280;35209;51.050;13.678;2023-05-15T14:12:11;99038.03;;;20.36;49.02
49341;BME280;35209;51.050;13.678;2023-05-15T14:17:13;99042.88;;;20.22;48.84
49341;BME280;35209;51.050;13.678;2023-05-15T14:22:15;99057.44;;;19.87;50.00
49341;BME280;35209;51.050;13.678;2023-05-15T14:27:17;99044.44;;;19.73;50.69
49341;BME280;35209;51.050;13.678;2023-05-15T14:32:18;99040.25;;;19.59;51.73
49341;BME280;35209;51.050;13.678;2023-05-15T14:37:20;99030.81;;;19.66;52.30
49341;BME280;35209;51.050;13.678;2023-05-15T14:42:22;99028.69;;;19.49;53.66
49341;BME280;35209;51.050;13.678;2023-05-15T14:47:23;99036.72;;;19.37;53.76
49341;BME280;35209;51.050;13.678;2023-05-15T14:52:28;99041.63;;;19.53;53.95
49341;BME280;35209;51.050;13.678;2023-05-15T14:57:29;99034.28;;;20.18;51.95
49341;BME280;35209;51.050;13.678;2023-05-15T15:02:31;99032.22;;;20.72;51.24
49341;BME280;35209;51.050;13.678;2023-05-15T15:08:03;99030.34;;;21.12;45.62
49341;BME280;35209;51.050;13.678;2023-05-15T15:13:06;99037.38;;;21.33;45.55
49341;BME280;35209;51.050;13.678;2023-05-15T15:18:08;99034.81;;;21.02;43.84
49341;BME280;35209;51.050;13.678;2023-05-15T15:23:09;99033.13;;;21.01;44.89
49341;BME280;35209;51.050;13.678;2023-05-15T15:28:11;99039.13;;;22.00;39.97
49341;BME280;35209;51.050;13.678;2023-05-15T15:33:13;99030.03;;;21.64;40.88
49341;BME280;35209;51.050;13.678;2023-05-15T15:38:14;99031.53;;;21.86;39.81
49341;BME280;35209;51.050;13.678;2023-05-15T15:43:16;99032.16;;;21.12;41.14
49341;BME280;35209;51.050;13.678;2023-05-15T15:48:18;99053.13;;;19.54;46.42
49341;BME280;35209;51.050;13.678;2023-05-15T15:53:21;99073.75;;;18.09;51.94
49341;BME280;35209;51.050;13.678;2023-05-15T15:58:23;99106.25;;;17.66;55.17
49341;BME280;35209;51.050;13.678;2023-05-15T16:03:25;99116.69;;;16.97;63.86
49341;BME280;35209;51.050;13.678;2023-05-15T16:08:27;99117.44;;;16.11;75.25
49341;BME280;35209;51.050;13.678;2023-05-15T16:13:29;99107.59;;;15.61;82.22
49341;BME280;35209;51.050;13.678;2023-05-15T16:18:31;99104.78;;;15.64;85.61
49341;BME280;35209;51.050;13.678;2023-05-15T16:23:34;99082.53;;;15.92;84.10
49341;BME280;35209;51.050;13.678;2023-05-15T16:28:36;99086.56;;;16.10;79.52
49341;BME280;35209;51.050;13.678;2023-05-15T16:33:37;99075.03;;;15.86;88.79
49341;BME280;35209;51.050;13.678;2023-05-15T16:38:39;99080.63;;;16.07;86.16
49341;BME280;35209;51.050;13.678;2023-05-15T16:43:41;99103.31;;;16.11;83.37
49341;BME280;35209;51.050;13.678;2023-05-15T16:48:43;99111.59;;;16.06;85.38
49341;BME280;35209;51.050;13.678;2023-05-15T16:53:44;99124.75;;;15.95;77.68
49341;BME280;35209;51.050;13.678;2023-05-15T16:58:47;99135.78;;;15.62;79.24
49341;BME280;35209;51.050;13.678;2023-05-15T17:03:49;99128.22;;;15.43;84.29
49341;BME280;35209;51.050;13.678;2023-05-15T17:08:51;99113.66;;;15.23;86.24
49341;BME280;35209;51.050;13.678;2023-05-15T17:13:53;99113.66;;;15.63;87.94
49341;BME280;35209;51.050;13.678;2023-05-15T17:18:54;99120.38;;;15.42;89.27
49341;BME280;35209;51.050;13.678;2023-05-15T17:23:56;99114.78;;;15.46;88.96
49341;BME280;35209;51.050;13.678;2023-05-15T17:28:59;99118.28;;;15.47;88.50
49341;BME280;35209;51.050;13.678;2023-05-15T17:34:00;99122.41;;;15.51;87.67
49341;BME280;35209;51.050;13.678;2023-05-15T17:39:02;99123.75;;;15.71;85.80
49341;BME280;35209;51.050;13.678;2023-05-15T17:44:04;99133.63;;;15.81;81.68
49341;BME280;35209;51.050;13.678;2023-05-15T17:49:06;99145.72;;;15.73;81.31
49341;BME280;35209;51.050;13.678;2023-05-15T17:54:07;99158.00;;;15.74;82.24
49341;BME280;35209;51.050;13.678;2023-05-15T17:59:09;99165.97;;;15.59;79.64
49341;BME280;35209;51.050;13.678;2023-05-15T18:04:16;99176.47;;;15.61;78.89
49341;BME280;35209;51.050;13.678;2023-05-15T18:09:27;99190.81;;;15.44;76.14
49341;BME280;35209;51.050;13.678;2023-05-15T18:14:30;99195.50;;;15.26;73.78
49341;BME280;35209;51.050;13.678;2023-05-15T18:19:31;99195.34;;;15.15;78.63
49341;BME280;35209;51.050;13.678;2023-05-15T18:24:33;99188.25;;;15.16;80.21
49341;BME280;35209;51.050;13.678;2023-05-15T18:29:35;99182.91;;;15.03;84.29
49341;BME280;35209;51.050;13.678;2023-05-15T18:34:36;99188.00;;;14.92;89.76
49341;BME280;35209;51.050;13.678;2023-05-15T18:39:38;99197.03;;;14.75;90.98
49341;BME280;35209;51.050;13.678;2023-05-15T18:44:40;99189.66;;;14.66;91.57
49341;BME280;35209;51.050;13.678;2023-05-15T18:49:42;99192.50;;;14.48;93.28
49341;BME280;35209;51.050;13.678;2023-05-15T18:54:44;99199.59;;;14.32;94.00
49341;BME280;35209;51.050;13.678;2023-05-15T18:59:46;99197.78;;;14.18;92.16
49341;BME280;35209;51.050;13.678;2023-05-15T19:04:48;99205.91;;;14.15;91.95
49341;BME280;35209;51.050;13.678;2023-05-15T19:09:50;99210.28;;;14.30;90.91
49341;BME280;35209;51.050;13.678;2023-05-15T19:14:52;99215.44;;;14.18;91.11
49341;BME280;35209;51.050;13.678;2023-05-15T19:19:53;99220.78;;;14.02;92.52
49341;BME280;35209;51.050;13.678;2023-05-15T19:24:55;99217.47;;;13.98;93.41
49341;BME280;35209;51.050;13.678;2023-05-15T19:29:57;99229.41;;;13.89;97.26
49341;BME280;35209;51.050;13.678;2023-05-15T19:34:59;99243.75;;;13.85;99.18
49341;BME280;35209;51.050;13.678;2023-05-15T19:40:01;99246.66;;;13.81;99.18
49341;BME280;35209;51.050;13.678;2023-05-15T19:45:02;99246.16;;;13.74;100.00
49341;BME280;35209;51.050;13.678;2023-05-15T19:50:05;99251.72;;;13.70;100.00
49341;BME280;35209;51.050;13.678;2023-05-15T19:55:07;99250.28;;;13.64;100.00
49341;BME280;35209;51.050;13.678;2023-05-15T20:00:09;99266.03;;;13.66;100.00
49341;BME280;35209;51.050;13.678;2023-05-15T20:05:13;99269.09;;;13.58;100.00
49341;BME280;35209;51.050;13.678;2023-05-15T20:10:15;99267.56;;;13.54;100.00
49341;BME280;35209;51.050;13.678;2023-05-15T20:15:19;99270.03;;;13.57;96.99
49341;BME280;35209;51.050;13.678;2023-05-15T20:20:21;99266.91;;;13.50;92.67
49341;BME280;35209;51.050;13.678;2023-05-15T20:25:23;99270.41;;;13.51;88.02
49341;BME280;35209;51.050;13.678;2023-05-15T20:30:28;99271.03;;;13.70;87.74
49341;BME280;35209;51.050;13.678;2023-05-15T20:35:30;99275.91;;;13.78;87.61
49341;BME280;35209;51.050;13.678;2023-05-15T20:40:32;99276.41;;;14.14;78.53
49341;BME280;35209;51.050;13.678;2023-05-15T20:45:34;99286.34;;;14.25;76.09
49341;BME280;35209;51.050;13.678;2023-05-15T20:50:36;99279.78;;;14.32;74.69
49341;BME280;35209;51.050;13.678;2023-05-15T20:55:37;99270.72;;;14.36;73.93
49341;BME280;35209;51.050;13.678;2023-05-15T21:00:39;99264.28;;;14.26;73.92
49341;BME280;35209;51.050;13.678;2023-05-15T21:05:41;99254.81;;;14.22;74.70
49341;BME280;35209;51.050;13.678;2023-05-15T21:10:42;99251.63;;;14.31;73.67
49341;BME280;35209;51.050;13.678;2023-05-15T21:15:44;99256.47;;;14.39;73.31
49341;BME280;35209;51.050;13.678;2023-05-15T21:20:46;99259.47;;;14.33;75.25
49341;BME280;35209;51.050;13.678;2023-05-15T21:25:47;99271.16;;;14.29;74.79
49341;BME280;35209;51.050;13.678;2023-05-15T21:30:49;99267.78;;;14.41;74.01
49341;BME280;35209;51.050;13.678;2023-05-15T21:35:51;99266.41;;;14.20;74.90
49341;BME280;35209;51.050;13.678;2023-05-15T21:40:53;99267.94;;;14.24;73.96
49341;BME280;35209;51.050;13.678;2023-05-15T21:45:55;99267.66;;;13.98;76.00
49341;BME280;35209;51.050;13.678;2023-05-15T21:50:57;99281.38;;;14.05;75.33
49341;BME280;35209;51.050;13.678;2023-05-15T21:56:00;99282.41;;;14.02;74.95
49341;BME280;35209;51.050;13.678;2023-05-15T22:01:02;99281.41;;;13.89;75.53
49341;BME280;35209;51.050;13.678;2023-05-15T22:06:03;99277.66;;;13.93;76.44
49341;BME280;35209;51.050;13.678;2023-05-15T22:11:05;99282.88;;;13.79;76.60
49341;BME280;35209;51.050;13.678;2023-05-15T22:16:07;99282.28;;;13.74;76.98
49341;BME280;35209;51.050;13.678;2023-05-15T22:21:10;99295.06;;;13.66;77.57
49341;BME280;35209;51.050;13.678;2023-05-15T22:26:11;99292.78;;;13.59;77.93
49341;BME280;35209;51.050;13.678;2023-05-15T22:31:13;99305.38;;;13.54;77.87
49341;BME280;35209;51.050;13.678;2023-05-15T22:36:15;99310.75;;;13.53;78.20
49341;BME280;35209;51.050;13.678;2023-05-15T22:41:16;99312.63;;;13.35;79.73
49341;BME280;35209;51.050;13.678;2023-05-15T22:46:18;99321.47;;;13.34;78.89
49341;BME280;35209;51.050;13.678;2023-05-15T22:51:20;99312.19;;;13.27;79.01
49341;BME280;35209;51.050;13.678;2023-05-15T22:56:22;99318.00;;;13.16;79.83
49341;BME280;35209;51.050;13.678;2023-05-15T23:01:24;99326.53;;;13.21;79.29
49341;BME280;35209;51.050;13.678;2023-05-15T23:06:26;99332.16;;;13.15;79.59
49341;BME280;35209;51.050;13.678;2023-05-15T23:11:28;99333.25;;;13.11;79.91
49341;BME280;35209;51.050;13.678;2023-05-15T23:16:29;99319.06;;;12.96;80.70
49341;BME280;35209;51.050;13.678;2023-05-15T23:21:31;99341.44;;;12.89;81.58
49341;BME280;35209;51.050;13.678;2023-05-15T23:26:33;99336.22;;;12.87;81.77
49341;BME280;35209;51.050;13.678;2023-05-15T23:31:34;99341.25;;;12.92;80.99
49341;BME280;35209;51.050;13.678;2023-05-15T23:36:36;99327.00;;;12.79;81.46
49341;BME280;35209;51.050;13.678;2023-05-15T23:41:38;99343.38;;;12.85;81.00
49341;BME280;35209;51.050;13.678;2023-05-15T23:46:39;99353.47;;;12.77;81.03
49341;BME280;35209;51.050;13.678;2023-05-15T23:51:41;99353.59;;;12.74;81.64
49341;BME280;35209;51.050;13.678;2023-05-15T23:56:44;99364.41;;;12.70;82.06
